Aérodrome :
LOGIN :

S'inscrire | Disclaimer

   EN    FR    IT 

 










Légende :    VFR   VFR Marginal   IFR   IFR Intensif   IFR Très Intensif
Visi : 
Plafond : 
>= 8 km
>= 3000ft
5 à 8 km
1000 à 3000 ft
1500m à 5 km
500 à 1000 ft
800 à 1500m
200 à 500 ft
< 800m
< 200 ft
Symboles :   Orages  Brouillard  Fortes neiges  Fortes précipitations  Vent > 20 kt
SIGMETs :   Divers  Orages  Givrage  Turbulence  Onde Orograph.  Cendres Volcan.







- Altitude de l'aérodrome : 13 ft
- Code IATA : SNR
- Voir les cartes d'approche


LFRZ - St-Nazaire

DERNIER METAR :
  • 200600Z AUTO 21008KT 9999 FEW016 SCT023 BKN035 18/17 Q1019 TEMPO 4000 BR BKN005 BKN020

METARs EXPIRÉS :
  • 200530Z AUTO 22008KT 9999 BKN023 OVC028 18/17 Q1019 TEMPO 4000 BR BKN005 BKN020
  • 200500Z AUTO 21009KT 9999 BKN020 BKN027 18/17 Q1018 TEMPO BKN010
  • 200430Z AUTO 21010KT 9999 BKN022 BKN028 OVC038 18/17 Q1019 TEMPO BKN010
  • 200400Z AUTO 21009KT 9999 FEW009 BKN039 18/17 Q1019 TEMPO BKN010
  • 200330Z AUTO 23010KT 9999 FEW014 OVC035 18/17 Q1019 TEMPO BKN010

TAF TAF LFRZ
Valide du 20 à 06h jusqu'au 21 à 06h UTC


200500Z 2006/2106 22009KT 9999 SCT020
TEMPO 2006/2009 4000 BR BKN005 BKN020
BECMG 2021/2023 22015G25KT BKN015
BECMG 2100/2103 30015KT 3000 -RA BKN005
TEMPO 2100/2103 23020G35KT
TEMPO 2103/2105 29020G35KT
BECMG 2103/2105 9999 NSW SCT020
Pas de NOTAMs connus pour ce terrain.



MET'MAP, la Météo Aéronautique d'un coup d'oeil ! - Copyright ORBIFLY Décembre 2007 - Disclaimer

ORBIFLY MET'MAP TEAM :

Programmation & Développement : Alexandra Zaïnal
Conception & Développement : Baudouin d'Aumeries
Co-Programmation & Développement : Marc-Olivier Méhu
Soutien technique & logistique : Manuel Goepfert

Contact : metmap@orbifly.com




SOURCES & CREDITS :

   NOAA